sensor_id;sensor_type;location;lat;lon;timestamp;pressure;altitude;pressure_sealevel;temperature;humidity
10646;BME280;5371;49.782;9.932;2022-09-06T00:01:15;99760.81;;;18.03;81.14
10646;BME280;5371;49.782;9.932;2022-09-06T00:03:43;99764.41;;;18.02;81.45
10646;BME280;5371;49.782;9.932;2022-09-06T00:06:13;99761.31;;;17.97;81.92
10646;BME280;5371;49.782;9.932;2022-09-06T00:08:42;99756.88;;;17.97;82.33
10646;BME280;5371;49.782;9.932;2022-09-06T00:11:10;99752.97;;;17.91;82.78
10646;BME280;5371;49.782;9.932;2022-09-06T00:13:38;99750.88;;;17.95;82.53
10646;BME280;5371;49.782;9.932;2022-09-06T00:16:07;99753.34;;;17.87;82.73
10646;BME280;5371;49.782;9.932;2022-09-06T00:18:36;99760.88;;;17.82;82.99
10646;BME280;5371;49.782;9.932;2022-09-06T00:21:11;99748.88;;;17.78;83.42
10646;BME280;5371;49.782;9.932;2022-09-06T00:23:39;99752.31;;;17.69;83.68
10646;BME280;5371;49.782;9.932;2022-09-06T00:26:06;99749.38;;;17.62;84.33
10646;BME280;5371;49.782;9.932;2022-09-06T00:28:34;99755.19;;;17.56;84.37
10646;BME280;5371;49.782;9.932;2022-09-06T00:31:07;99755.84;;;17.58;84.49
10646;BME280;5371;49.782;9.932;2022-09-06T00:33:37;99761.16;;;17.58;84.74
10646;BME280;5371;49.782;9.932;2022-09-06T00:36:05;99760.84;;;17.51;85.15
10646;BME280;5371;49.782;9.932;2022-09-06T00:38:32;99763.06;;;17.46;85.73
10646;BME280;5371;49.782;9.932;2022-09-06T00:41:00;99760.94;;;17.40;86.07
10646;BME280;5371;49.782;9.932;2022-09-06T00:43:28;99754.97;;;17.38;86.26
10646;BME280;5371;49.782;9.932;2022-09-06T00:45:55;99765.97;;;17.43;85.94
10646;BME280;5371;49.782;9.932;2022-09-06T00:48:23;99763.13;;;17.35;86.32
10646;BME280;5371;49.782;9.932;2022-09-06T00:50:53;99757.97;;;17.34;86.51
10646;BME280;5371;49.782;9.932;2022-09-06T00:53:24;99760.63;;;17.34;86.36
10646;BME280;5371;49.782;9.932;2022-09-06T00:55:52;99758.16;;;17.42;86.15
10646;BME280;5371;49.782;9.932;2022-09-06T00:58:21;99762.19;;;17.36;86.52
10646;BME280;5371;49.782;9.932;2022-09-06T01:00:50;99754.13;;;17.38;86.84
10646;BME280;5371;49.782;9.932;2022-09-06T01:03:17;99767.72;;;17.33;87.99
10646;BME280;5371;49.782;9.932;2022-09-06T01:05:51;99763.97;;;17.36;88.14
10646;BME280;5371;49.782;9.932;2022-09-06T01:08:35;99761.03;;;17.29;88.66
10646;BME280;5371;49.782;9.932;2022-09-06T01:11:27;99764.44;;;17.20;88.65
10646;BME280;5371;49.782;9.932;2022-09-06T01:14:04;99765.53;;;17.17;88.63
10646;BME280;5371;49.782;9.932;2022-09-06T01:16:40;99764.81;;;17.15;88.56
10646;BME280;5371;49.782;9.932;2022-09-06T01:19:45;99758.28;;;17.10;88.63
10646;BME280;5371;49.782;9.932;2022-09-06T01:22:37;99763.16;;;17.14;88.47
10646;BME280;5371;49.782;9.932;2022-09-06T01:25:32;99765.22;;;17.11;88.28
10646;BME280;5371;49.782;9.932;2022-09-06T01:28:25;99758.16;;;17.11;87.78
10646;BME280;5371;49.782;9.932;2022-09-06T01:31:01;99759.47;;;17.06;87.75
10646;BME280;5371;49.782;9.932;2022-09-06T01:33:34;99759.03;;;17.01;87.90
10646;BME280;5371;49.782;9.932;2022-09-06T01:36:06;99767.22;;;16.98;87.98
10646;BME280;5371;49.782;9.932;2022-09-06T01:38:34;99764.13;;;16.93;88.31
10646;BME280;5371;49.782;9.932;2022-09-06T01:41:02;99762.19;;;16.95;88.33
10646;BME280;5371;49.782;9.932;2022-09-06T01:43:33;99763.84;;;16.96;88.34
10646;BME280;5371;49.782;9.932;2022-09-06T01:46:06;99759.94;;;16.90;88.66
10646;BME280;5371;49.782;9.932;2022-09-06T01:48:48;99760.50;;;16.94;88.81
10646;BME280;5371;49.782;9.932;2022-09-06T01:51:28;99762.19;;;16.95;88.76
10646;BME280;5371;49.782;9.932;2022-09-06T01:54:12;99751.91;;;16.92;88.79
10646;BME280;5371;49.782;9.932;2022-09-06T01:56:51;99756.66;;;16.98;88.99
10646;BME280;5371;49.782;9.932;2022-09-06T01:59:35;99759.69;;;16.93;89.64
10646;BME280;5371;49.782;9.932;2022-09-06T02:02:07;99758.13;;;16.91;90.20
10646;BME280;5371;49.782;9.932;2022-09-06T02:04:42;99766.06;;;16.91;90.43
10646;BME280;5371;49.782;9.932;2022-09-06T02:07:14;99763.66;;;16.88;90.91
10646;BME280;5371;49.782;9.932;2022-09-06T02:09:47;99766.31;;;16.88;90.64
10646;BME280;5371;49.782;9.932;2022-09-06T02:12:17;99763.78;;;16.86;90.38
10646;BME280;5371;49.782;9.932;2022-09-06T02:14:51;99767.91;;;16.79;90.74
10646;BME280;5371;49.782;9.932;2022-09-06T02:17:25;99761.59;;;16.70;91.08
10646;BME280;5371;49.782;9.932;2022-09-06T02:19:57;99766.09;;;16.79;91.06
10646;BME280;5371;49.782;9.932;2022-09-06T02:22:29;99770.44;;;16.80;90.30
10646;BME280;5371;49.782;9.932;2022-09-06T02:24:59;99760.50;;;16.73;90.76
10646;BME280;5371;49.782;9.932;2022-09-06T02:27:27;99761.72;;;16.69;90.75
10646;BME280;5371;49.782;9.932;2022-09-06T02:29:56;99760.81;;;16.79;90.42
10646;BME280;5371;49.782;9.932;2022-09-06T02:32:24;99755.34;;;16.71;90.62
10646;BME280;5371;49.782;9.932;2022-09-06T02:34:54;99758.97;;;16.91;89.76
10646;BME280;5371;49.782;9.932;2022-09-06T02:37:22;99744.94;;;16.91;89.80
10646;BME280;5371;49.782;9.932;2022-09-06T02:39:51;99753.63;;;16.81;91.13
10646;BME280;5371;49.782;9.932;2022-09-06T02:42:18;99758.44;;;16.76;91.18
10646;BME280;5371;49.782;9.932;2022-09-06T02:44:46;99751.47;;;16.75;91.36
10646;BME280;5371;49.782;9.932;2022-09-06T02:47:16;99747.31;;;16.73;91.54
10646;BME280;5371;49.782;9.932;2022-09-06T02:49:43;99753.34;;;16.64;92.01
10646;BME280;5371;49.782;9.932;2022-09-06T02:52:10;99750.22;;;16.59;92.42
10646;BME280;5371;49.782;9.932;2022-09-06T02:54:37;99748.28;;;16.61;92.31
10646;BME280;5371;49.782;9.932;2022-09-06T02:57:04;99746.53;;;16.61;92.17
10646;BME280;5371;49.782;9.932;2022-09-06T02:59:31;99744.56;;;16.74;91.59
10646;BME280;5371;49.782;9.932;2022-09-06T03:01:58;99744.19;;;16.68;91.95
10646;BME280;5371;49.782;9.932;2022-09-06T03:04:27;99745.03;;;16.68;91.82
10646;BME280;5371;49.782;9.932;2022-09-06T03:06:56;99742.69;;;16.65;91.91
10646;BME280;5371;49.782;9.932;2022-09-06T03:09:23;99742.28;;;16.70;91.91
10646;BME280;5371;49.782;9.932;2022-09-06T03:11:50;99742.59;;;16.76;90.81
10646;BME280;5371;49.782;9.932;2022-09-06T03:14:17;99743.13;;;16.70;90.92
10646;BME280;5371;49.782;9.932;2022-09-06T03:16:44;99748.53;;;16.69;91.26
10646;BME280;5371;49.782;9.932;2022-09-06T03:19:11;99752.50;;;16.63;91.71
10646;BME280;5371;49.782;9.932;2022-09-06T03:21:40;99754.44;;;16.61;90.94
10646;BME280;5371;49.782;9.932;2022-09-06T03:24:07;99745.97;;;16.46;92.01
10646;BME280;5371;49.782;9.932;2022-09-06T03:26:33;99747.38;;;16.51;91.33
10646;BME280;5371;49.782;9.932;2022-09-06T03:29:00;99758.31;;;16.46;91.18
10646;BME280;5371;49.782;9.932;2022-09-06T03:31:27;99810.06;;;16.58;90.89
10646;BME280;5371;49.782;9.932;2022-09-06T03:33:54;99845.72;;;16.64;89.88
10646;BME280;5371;49.782;9.932;2022-09-06T03:36:21;99765.22;;;16.90;87.22
10646;BME280;5371;49.782;9.932;2022-09-06T03:38:50;99782.53;;;17.04;86.05
10646;BME280;5371;49.782;9.932;2022-09-06T03:41:18;99829.88;;;17.16;85.13
10646;BME280;5371;49.782;9.932;2022-09-06T03:43:45;99795.75;;;17.25;84.70
10646;BME280;5371;49.782;9.932;2022-09-06T03:46:12;99793.88;;;17.36;83.65
10646;BME280;5371;49.782;9.932;2022-09-06T03:48:39;99793.34;;;17.42;83.40
10646;BME280;5371;49.782;9.932;2022-09-06T03:51:06;99769.03;;;17.48;83.18
10646;BME280;5371;49.782;9.932;2022-09-06T03:53:33;99773.09;;;17.52;82.57
10646;BME280;5371;49.782;9.932;2022-09-06T03:56:02;99781.44;;;17.57;82.53
10646;BME280;5371;49.782;9.932;2022-09-06T03:58:30;99764.69;;;17.68;81.66
10646;BME280;5371;49.782;9.932;2022-09-06T04:01:02;99740.06;;;17.68;81.12
10646;BME280;5371;49.782;9.932;2022-09-06T04:03:30;99758.19;;;17.72;80.76
10646;BME280;5371;49.782;9.932;2022-09-06T04:05:57;99762.94;;;17.78;80.23
10646;BME280;5371;49.782;9.932;2022-09-06T04:08:24;99745.41;;;17.77;80.25
10646;BME280;5371;49.782;9.932;2022-09-06T04:10:52;99739.84;;;17.80;80.19
10646;BME280;5371;49.782;9.932;2022-09-06T04:13:22;99740.13;;;17.77;80.35
10646;BME280;5371;49.782;9.932;2022-09-06T04:15:49;99739.97;;;17.79;80.16
10646;BME280;5371;49.782;9.932;2022-09-06T04:18:18;99738.72;;;17.73;80.81
10646;BME280;5371;49.782;9.932;2022-09-06T04:20:47;99752.06;;;17.72;80.51
10646;BME280;5371;49.782;9.932;2022-09-06T04:23:14;99760.84;;;17.72;81.79
10646;BME280;5371;49.782;9.932;2022-09-06T04:25:45;99764.31;;;17.73;81.40
10646;BME280;5371;49.782;9.932;2022-09-06T04:28:13;99758.50;;;17.79;82.02
10646;BME280;5371;49.782;9.932;2022-09-06T04:30:42;99755.41;;;17.74;82.16
10646;BME280;5371;49.782;9.932;2022-09-06T04:33:09;99745.03;;;17.61;82.50
10646;BME280;5371;49.782;9.932;2022-09-06T04:35:36;99741.81;;;17.57;83.21
10646;BME280;5371;49.782;9.932;2022-09-06T04:38:03;99742.53;;;17.59;83.05
10646;BME280;5371;49.782;9.932;2022-09-06T04:40:31;99735.97;;;17.54;82.58
10646;BME280;5371;49.782;9.932;2022-09-06T04:43:00;99728.47;;;17.59;82.35
10646;BME280;5371;49.782;9.932;2022-09-06T04:45:27;99719.34;;;17.63;83.38
10646;BME280;5371;49.782;9.932;2022-09-06T04:47:55;99711.16;;;17.66;83.84
10646;BME280;5371;49.782;9.932;2022-09-06T04:50:22;99718.69;;;17.71;83.69
10646;BME280;5371;49.782;9.932;2022-09-06T04:52:49;99720.19;;;17.64;83.59
10646;BME280;5371;49.782;9.932;2022-09-06T04:55:16;99710.81;;;17.59;83.20
10646;BME280;5371;49.782;9.932;2022-09-06T04:57:43;99710.09;;;17.57;83.48
10646;BME280;5371;49.782;9.932;2022-09-06T05:00:13;99714.97;;;17.52;83.83
10646;BME280;5371;49.782;9.932;2022-09-06T05:02:40;99705.81;;;17.56;83.39
10646;BME280;5371;49.782;9.932;2022-09-06T05:05:11;99695.50;;;17.53;83.56
10646;BME280;5371;49.782;9.932;2022-09-06T05:07:38;99702.47;;;17.54;83.69
10646;BME280;5371;49.782;9.932;2022-09-06T05:10:08;99720.25;;;17.52;84.01
10646;BME280;5371;49.782;9.932;2022-09-06T05:12:36;99723.97;;;17.50;84.63
10646;BME280;5371;49.782;9.932;2022-09-06T05:15:04;99726.38;;;17.53;85.00
10646;BME280;5371;49.782;9.932;2022-09-06T05:17:32;99725.25;;;17.46;85.17
10646;BME280;5371;49.782;9.932;2022-09-06T05:20:00;99728.72;;;17.46;84.50
10646;BME280;5371;49.782;9.932;2022-09-06T05:22:28;99734.13;;;17.45;84.16
10646;BME280;5371;49.782;9.932;2022-09-06T05:24:56;99732.56;;;17.42;84.74
10646;BME280;5371;49.782;9.932;2022-09-06T05:27:23;99733.16;;;17.46;84.56
10646;BME280;5371;49.782;9.932;2022-09-06T05:29:50;99734.22;;;17.34;85.39
10646;BME280;5371;49.782;9.932;2022-09-06T05:32:17;99727.84;;;17.36;85.28
10646;BME280;5371;49.782;9.932;2022-09-06T05:34:45;99729.75;;;17.34;85.57
10646;BME280;5371;49.782;9.932;2022-09-06T05:37:13;99732.44;;;17.44;85.70
10646;BME280;5371;49.782;9.932;2022-09-06T05:39:41;99730.56;;;17.55;85.48
10646;BME280;5371;49.782;9.932;2022-09-06T05:42:09;99728.59;;;17.57;84.95
10646;BME280;5371;49.782;9.932;2022-09-06T05:44:36;99723.97;;;17.50;85.86
10646;BME280;5371;49.782;9.932;2022-09-06T05:47:04;99721.91;;;17.53;85.62
10646;BME280;5371;49.782;9.932;2022-09-06T05:49:31;99737.78;;;17.53;85.75
10646;BME280;5371;49.782;9.932;2022-09-06T05:51:58;99737.00;;;17.63;85.27
10646;BME280;5371;49.782;9.932;2022-09-06T05:54:25;99724.72;;;17.62;85.32
10646;BME280;5371;49.782;9.932;2022-09-06T05:56:54;99721.75;;;17.66;85.87
10646;BME280;5371;49.782;9.932;2022-09-06T05:59:21;99726.19;;;17.66;85.57
10646;BME280;5371;49.782;9.932;2022-09-06T06:01:50;99738.41;;;17.67;85.93
10646;BME280;5371;49.782;9.932;2022-09-06T06:04:17;99719.66;;;17.70;85.83
10646;BME280;5371;49.782;9.932;2022-09-06T06:06:46;99725.38;;;17.75;85.24
10646;BME280;5371;49.782;9.932;2022-09-06T06:09:14;99724.84;;;17.90;85.19
10646;BME280;5371;49.782;9.932;2022-09-06T06:11:41;99729.19;;;18.01;84.50
10646;BME280;5371;49.782;9.932;2022-09-06T06:14:19;99723.50;;;18.06;83.43
10646;BME280;5371;49.782;9.932;2022-09-06T06:16:49;99732.41;;;18.14;83.00
10646;BME280;5371;49.782;9.932;2022-09-06T06:19:16;99741.63;;;18.20;82.55
10646;BME280;5371;49.782;9.932;2022-09-06T06:21:43;99733.00;;;18.27;82.50
10646;BME280;5371;49.782;9.932;2022-09-06T06:24:11;99745.13;;;18.20;82.11
10646;BME280;5371;49.782;9.932;2022-09-06T06:26:39;99740.63;;;18.21;81.58
10646;BME280;5371;49.782;9.932;2022-09-06T06:29:06;99751.50;;;18.18;81.51
10646;BME280;5371;49.782;9.932;2022-09-06T06:31:36;99746.75;;;18.21;81.68
10646;BME280;5371;49.782;9.932;2022-09-06T06:34:04;99743.72;;;18.26;81.57
10646;BME280;5371;49.782;9.932;2022-09-06T06:36:32;99736.88;;;18.33;81.05
10646;BME280;5371;49.782;9.932;2022-09-06T06:39:01;99745.09;;;18.30;81.46
10646;BME280;5371;49.782;9.932;2022-09-06T06:41:30;99749.16;;;18.44;80.81
10646;BME280;5371;49.782;9.932;2022-09-06T06:43:59;99749.16;;;18.53;80.15
10646;BME280;5371;49.782;9.932;2022-09-06T06:46:28;99758.69;;;18.75;78.66
10646;BME280;5371;49.782;9.932;2022-09-06T06:48:57;99761.47;;;18.83;78.64
10646;BME280;5371;49.782;9.932;2022-09-06T06:51:27;99767.28;;;18.96;77.47
10646;BME280;5371;49.782;9.932;2022-09-06T06:53:56;99763.66;;;18.97;77.60
10646;BME280;5371;49.782;9.932;2022-09-06T06:56:26;99760.31;;;19.05;76.73
10646;BME280;5371;49.782;9.932;2022-09-06T06:58:55;99756.66;;;19.16;75.72
10646;BME280;5371;49.782;9.932;2022-09-06T07:01:23;99762.78;;;19.26;75.72
10646;BME280;5371;49.782;9.932;2022-09-06T07:03:51;99768.06;;;19.26;75.64
10646;BME280;5371;49.782;9.932;2022-09-06T07:06:21;99770.25;;;19.40;75.34
10646;BME280;5371;49.782;9.932;2022-09-06T07:08:48;99764.41;;;19.56;74.92
10646;BME280;5371;49.782;9.932;2022-09-06T07:11:16;99765.97;;;19.76;74.43
10646;BME280;5371;49.782;9.932;2022-09-06T07:13:43;99756.41;;;19.93;72.70
10646;BME280;5371;49.782;9.932;2022-09-06T07:16:16;99762.69;;;20.19;71.61
10646;BME280;5371;49.782;9.932;2022-09-06T07:18:49;99763.19;;;20.68;69.77
10646;BME280;5371;49.782;9.932;2022-09-06T07:21:18;99755.28;;;20.94;67.42
10646;BME280;5371;49.782;9.932;2022-09-06T07:23:47;99767.31;;;21.23;66.68
10646;BME280;5371;49.782;9.932;2022-09-06T07:26:15;99763.50;;;21.52;65.89
10646;BME280;5371;49.782;9.932;2022-09-06T07:28:43;99760.81;;;21.86;64.54
10646;BME280;5371;49.782;9.932;2022-09-06T07:31:11;99763.69;;;22.43;62.52
10646;BME280;5371;49.782;9.932;2022-09-06T07:33:38;99762.22;;;22.48;62.15
10646;BME280;5371;49.782;9.932;2022-09-06T07:36:07;99758.44;;;22.75;60.98
10646;BME280;5371;49.782;9.932;2022-09-06T07:38:34;99758.44;;;22.75;61.10
10646;BME280;5371;49.782;9.932;2022-09-06T07:41:04;99762.94;;;22.99;59.71
10646;BME280;5371;49.782;9.932;2022-09-06T07:43:32;99755.94;;;22.90;59.67
10646;BME280;5371;49.782;9.932;2022-09-06T07:46:04;99755.44;;;23.02;59.94
10646;BME280;5371;49.782;9.932;2022-09-06T07:48:33;99748.06;;;23.37;58.99
10646;BME280;5371;49.782;9.932;2022-09-06T07:51:05;99755.06;;;23.93;56.75
10646;BME280;5371;49.782;9.932;2022-09-06T07:53:33;99748.94;;;24.15;55.70
10646;BME280;5371;49.782;9.932;2022-09-06T07:56:01;99752.31;;;24.40;55.03
10646;BME280;5371;49.782;9.932;2022-09-06T07:58:31;99755.19;;;24.61;53.87
10646;BME280;5371;49.782;9.932;2022-09-06T08:04:00;99761.34;;;25.08;52.53
10646;BME280;5371;49.782;9.932;2022-09-06T08:06:29;99762.50;;;25.28;52.19
10646;BME280;5371;49.782;9.932;2022-09-06T08:08:58;99758.47;;;25.61;51.29
10646;BME280;5371;49.782;9.932;2022-09-06T08:11:27;99758.94;;;25.80;50.78
10646;BME280;5371;49.782;9.932;2022-09-06T08:13:57;99761.00;;;26.28;49.56
10646;BME280;5371;49.782;9.932;2022-09-06T08:16:26;99767.38;;;26.27;49.56
10646;BME280;5371;49.782;9.932;2022-09-06T08:18:55;99765.81;;;26.54;48.47
10646;BME280;5371;49.782;9.932;2022-09-06T08:21:30;99762.16;;;27.04;47.09
10646;BME280;5371;49.782;9.932;2022-09-06T08:23:58;99765.28;;;27.29;46.25
10646;BME280;5371;49.782;9.932;2022-09-06T08:26:27;99765.47;;;27.55;45.84
10646;BME280;5371;49.782;9.932;2022-09-06T08:28:57;99762.78;;;27.55;45.60
10646;BME280;5371;49.782;9.932;2022-09-06T08:31:26;99756.88;;;27.67;45.42
10646;BME280;5371;49.782;9.932;2022-09-06T08:33:53;99756.44;;;28.11;44.61
10646;BME280;5371;49.782;9.932;2022-09-06T08:36:21;99759.19;;;28.24;44.02
10646;BME280;5371;49.782;9.932;2022-09-06T08:38:48;99745.75;;;28.17;43.83
10646;BME280;5371;49.782;9.932;2022-09-06T08:41:22;99752.59;;;28.26;43.66
10646;BME280;5371;49.782;9.932;2022-09-06T08:43:52;99744.84;;;28.78;42.82
10646;BME280;5371;49.782;9.932;2022-09-06T08:46:28;99741.13;;;28.98;42.06
10646;BME280;5371;49.782;9.932;2022-09-06T08:48:57;99742.78;;;29.19;41.53
10646;BME280;5371;49.782;9.932;2022-09-06T08:51:50;99742.75;;;29.32;41.56
10646;BME280;5371;49.782;9.932;2022-09-06T08:54:25;99737.50;;;29.77;40.37
10646;BME280;5371;49.782;9.932;2022-09-06T08:57:02;99731.88;;;29.85;40.02
10646;BME280;5371;49.782;9.932;2022-09-06T08:59:36;99738.59;;;30.14;39.69
10646;BME280;5371;49.782;9.932;2022-09-06T09:02:15;99726.28;;;30.31;39.20
10646;BME280;5371;49.782;9.932;2022-09-06T09:04:47;99729.63;;;30.27;39.53
10646;BME280;5371;49.782;9.932;2022-09-06T09:07:36;99730.91;;;30.18;39.55
10646;BME280;5371;49.782;9.932;2022-09-06T09:10:08;99724.41;;;29.81;40.57
10646;BME280;5371;49.782;9.932;2022-09-06T09:12:43;99721.22;;;29.59;40.88
10646;BME280;5371;49.782;9.932;2022-09-06T09:15:13;99721.66;;;29.36;40.88
10646;BME280;5371;49.782;9.932;2022-09-06T09:17:43;99725.28;;;29.74;40.47
10646;BME280;5371;49.782;9.932;2022-09-06T09:20:11;99717.78;;;30.66;37.96
10646;BME280;5371;49.782;9.932;2022-09-06T09:22:39;99718.59;;;30.66;38.13
10646;BME280;5371;49.782;9.932;2022-09-06T09:25:09;99712.94;;;30.74;37.73
10646;BME280;5371;49.782;9.932;2022-09-06T09:27:39;99712.34;;;31.22;36.52
10646;BME280;5371;49.782;9.932;2022-09-06T09:30:08;99709.75;;;31.09;36.63
10646;BME280;5371;49.782;9.932;2022-09-06T09:32:38;99705.34;;;30.65;37.44
10646;BME280;5371;49.782;9.932;2022-09-06T09:35:17;99705.94;;;30.92;36.93
10646;BME280;5371;49.782;9.932;2022-09-06T09:37:45;99704.69;;;31.19;36.66
10646;BME280;5371;49.782;9.932;2022-09-06T09:40:13;99702.59;;;31.39;35.68
10646;BME280;5371;49.782;9.932;2022-09-06T09:42:41;99699.00;;;31.27;35.98
10646;BME280;5371;49.782;9.932;2022-09-06T09:45:22;99699.09;;;30.89;36.79
10646;BME280;5371;49.782;9.932;2022-09-06T09:47:49;99702.28;;;31.11;36.23
10646;BME280;5371;49.782;9.932;2022-09-06T09:50:26;99690.69;;;31.04;35.98
10646;BME280;5371;49.782;9.932;2022-09-06T09:52:54;99695.38;;;31.88;34.84
10646;BME280;5371;49.782;9.932;2022-09-06T09:55:23;99682.31;;;32.03;33.83
10646;BME280;5371;49.782;9.932;2022-09-06T09:57:51;99686.41;;;31.76;33.92
10646;BME280;5371;49.782;9.932;2022-09-06T10:00:43;99673.56;;;32.19;33.87
10646;BME280;5371;49.782;9.932;2022-09-06T10:03:11;99672.78;;;32.84;32.19
10646;BME280;5371;49.782;9.932;2022-09-06T10:05:40;99669.38;;;32.05;33.59
10646;BME280;5371;49.782;9.932;2022-09-06T10:08:10;99671.13;;;32.71;32.27
10646;BME280;5371;49.782;9.932;2022-09-06T10:10:39;99663.59;;;32.85;31.88
10646;BME280;5371;49.782;9.932;2022-09-06T10:13:17;99661.25;;;33.00;31.81
10646;BME280;5371;49.782;9.932;2022-09-06T10:15:45;99658.53;;;33.12;31.61
10646;BME280;5371;49.782;9.932;2022-09-06T10:18:16;99645.84;;;32.77;32.02
10646;BME280;5371;49.782;9.932;2022-09-06T10:20:50;99647.22;;;33.15;31.42
10646;BME280;5371;49.782;9.932;2022-09-06T10:23:22;99648.53;;;33.24;31.52
10646;BME280;5371;49.782;9.932;2022-09-06T10:25:57;99640.41;;;33.00;31.53
10646;BME280;5371;49.782;9.932;2022-09-06T10:28:33;99640.88;;;33.21;31.73
10646;BME280;5371;49.782;9.932;2022-09-06T10:31:32;99636.31;;;32.86;32.36
10646;BME280;5371;49.782;9.932;2022-09-06T10:37:11;99637.34;;;33.32;31.42
10646;BME280;5371;49.782;9.932;2022-09-06T10:39:47;99635.69;;;33.19;31.67
10646;BME280;5371;49.782;9.932;2022-09-06T10:42:22;99639.38;;;33.76;30.79
10646;BME280;5371;49.782;9.932;2022-09-06T10:45:07;99637.72;;;33.75;30.46
10646;BME280;5371;49.782;9.932;2022-09-06T10:47:53;99633.72;;;33.03;31.21
10646;BME280;5371;49.782;9.932;2022-09-06T10:50:24;99625.00;;;32.89;31.43
10646;BME280;5371;49.782;9.932;2022-09-06T10:52:57;99629.81;;;32.87;31.46
10646;BME280;5371;49.782;9.932;2022-09-06T10:55:30;99628.16;;;32.98;31.97
10646;BME280;5371;49.782;9.932;2022-09-06T10:58:00;99624.13;;;33.35;30.55
10646;BME280;5371;49.782;9.932;2022-09-06T11:00:33;99619.72;;;32.94;31.57
10646;BME280;5371;49.782;9.932;2022-09-06T11:03:09;99623.00;;;32.96;31.34
10646;BME280;5371;49.782;9.932;2022-09-06T11:05:43;99622.53;;;32.99;31.11
10646;BME280;5371;49.782;9.932;2022-09-06T11:08:21;99625.81;;;33.01;31.33
10646;BME280;5371;49.782;9.932;2022-09-06T11:10:52;99623.31;;;33.35;31.21
10646;BME280;5371;49.782;9.932;2022-09-06T11:13:22;99620.13;;;33.38;30.70
10646;BME280;5371;49.782;9.932;2022-09-06T11:15:54;99617.19;;;33.39;30.73
10646;BME280;5371;49.782;9.932;2022-09-06T11:18:27;99620.41;;;33.65;30.07
10646;BME280;5371;49.782;9.932;2022-09-06T11:21:17;99625.09;;;33.41;30.95
10646;BME280;5371;49.782;9.932;2022-09-06T11:23:51;99617.91;;;33.75;29.97
10646;BME280;5371;49.782;9.932;2022-09-06T11:26:32;99609.22;;;33.61;30.06
10646;BME280;5371;49.782;9.932;2022-09-06T11:29:06;99606.53;;;33.90;29.83
10646;BME280;5371;49.782;9.932;2022-09-06T11:31:50;99602.47;;;34.04;29.94
10646;BME280;5371;49.782;9.932;2022-09-06T11:34:23;99617.34;;;33.61;30.20
10646;BME280;5371;49.782;9.932;2022-09-06T11:36:52;99602.09;;;33.43;30.65
10646;BME280;5371;49.782;9.932;2022-09-06T11:39:27;99595.28;;;33.69;29.86
10646;BME280;5371;49.782;9.932;2022-09-06T11:41:55;99598.41;;;33.90;29.71
10646;BME280;5371;49.782;9.932;2022-09-06T11:44:50;99595.81;;;33.55;30.29
10646;BME280;5371;49.782;9.932;2022-09-06T11:47:36;99597.19;;;33.69;29.99
10646;BME280;5371;49.782;9.932;2022-09-06T11:50:24;99589.38;;;33.44;30.10
10646;BME280;5371;49.782;9.932;2022-09-06T11:52:59;99595.03;;;33.71;29.53
10646;BME280;5371;49.782;9.932;2022-09-06T11:55:40;99594.81;;;33.72;29.85
10646;BME280;5371;49.782;9.932;2022-09-06T11:58:19;99581.88;;;33.74;29.83
10646;BME280;5371;49.782;9.932;2022-09-06T12:04:02;99584.94;;;33.26;30.71
10646;BME280;5371;49.782;9.932;2022-09-06T12:06:32;99581.53;;;33.19;29.83
10646;BME280;5371;49.782;9.932;2022-09-06T12:09:00;99578.75;;;32.79;30.78
10646;BME280;5371;49.782;9.932;2022-09-06T12:15:41;99581.16;;;31.81;32.23
10646;BME280;5371;49.782;9.932;2022-09-06T12:18:51;99577.66;;;30.96;33.48
10646;BME280;5371;49.782;9.932;2022-09-06T12:21:37;99578.72;;;30.70;34.15
10646;BME280;5371;49.782;9.932;2022-09-06T12:24:06;99571.44;;;30.52;34.31
10646;BME280;5371;49.782;9.932;2022-09-06T12:27:08;99579.72;;;30.26;35.10
10646;BME280;5371;49.782;9.932;2022-09-06T12:29:38;99570.00;;;29.87;35.88
10646;BME280;5371;49.782;9.932;2022-09-06T12:32:07;99568.59;;;29.46;36.58
10646;BME280;5371;49.782;9.932;2022-09-06T12:34:36;99565.41;;;29.62;36.66
10646;BME280;5371;49.782;9.932;2022-09-06T12:37:06;99563.13;;;29.59;36.22
10646;BME280;5371;49.782;9.932;2022-09-06T12:39:36;99564.00;;;29.53;36.40
10646;BME280;5371;49.782;9.932;2022-09-06T12:42:05;99558.69;;;29.33;36.50
10646;BME280;5371;49.782;9.932;2022-09-06T12:44:34;99557.66;;;29.34;36.34
10646;BME280;5371;49.782;9.932;2022-09-06T12:47:05;99553.16;;;29.22;38.37
10646;BME280;5371;49.782;9.932;2022-09-06T12:49:36;99545.31;;;29.20;37.90
10646;BME280;5371;49.782;9.932;2022-09-06T12:52:12;99543.00;;;29.30;37.41
10646;BME280;5371;49.782;9.932;2022-09-06T12:54:44;99537.91;;;29.09;38.68
10646;BME280;5371;49.782;9.932;2022-09-06T12:57:16;99537.38;;;29.32;36.93
10646;BME280;5371;49.782;9.932;2022-09-06T12:59:48;99540.31;;;29.24;36.89
10646;BME280;5371;49.782;9.932;2022-09-06T13:02:19;99533.25;;;29.29;36.87
10646;BME280;5371;49.782;9.932;2022-09-06T13:04:50;99527.81;;;29.43;36.47
10646;BME280;5371;49.782;9.932;2022-09-06T13:07:21;99518.03;;;29.55;36.29
10646;BME280;5371;49.782;9.932;2022-09-06T13:09:52;99520.38;;;29.45;36.30
10646;BME280;5371;49.782;9.932;2022-09-06T13:12:25;99524.25;;;29.55;36.02
10646;BME280;5371;49.782;9.932;2022-09-06T13:14:55;99519.47;;;29.57;36.04
10646;BME280;5371;49.782;9.932;2022-09-06T13:17:26;99514.44;;;29.67;35.15
10646;BME280;5371;49.782;9.932;2022-09-06T13:19:54;99519.31;;;29.46;35.60
10646;BME280;5371;49.782;9.932;2022-09-06T13:22:42;99516.22;;;29.42;35.69
10646;BME280;5371;49.782;9.932;2022-09-06T13:25:14;99517.03;;;29.49;35.09
10646;BME280;5371;49.782;9.932;2022-09-06T13:27:43;99509.06;;;29.67;35.51
10646;BME280;5371;49.782;9.932;2022-09-06T13:30:33;99511.28;;;29.77;35.27
10646;BME280;5371;49.782;9.932;2022-09-06T13:33:05;99511.78;;;29.92;35.11
10646;BME280;5371;49.782;9.932;2022-09-06T13:35:35;99505.56;;;29.92;33.96
10646;BME280;5371;49.782;9.932;2022-09-06T13:38:31;99499.22;;;30.11;33.85
10646;BME280;5371;49.782;9.932;2022-09-06T13:40:59;99508.56;;;30.08;36.86
10646;BME280;5371;49.782;9.932;2022-09-06T13:43:27;99502.56;;;29.75;37.51
10646;BME280;5371;49.782;9.932;2022-09-06T13:46:04;99498.13;;;29.87;35.14